Forside
METAR-TAF:

METAR-TAF

Lufthavne :

Tri-County Regional Airport

Lone Rock, Wisconsin, USA

Breddekreds: 43-12-43N, længdekreds: 090-10-53W, højde: 219 m

Aktuelle vejr

Denne rapport blev lavet for 1 time og 6 minutter siden, kl. 15:56 UTC
Vind 4 kt fra varierende retninger
Temperatur 23°C
Fugtighed 65%
Tryk 1020 hPa
Sigt: 16.1 km
skyfri

METAR: KLNR 031556Z AUTO VRB04KT 10SM CLR 23/16 A3012 RMK AO2 SLP193 T02280161

Tid: 12:02 (17:02 UTC)


TAF: fraværende

Vejrobservationer og prognoser fra mere end 4000 lufthavne (METAR og TAF).

De gule og røde prikker repræsenterer de meteorologiske stationer.

Flyt musen over at se navnet på stationen.

Så klik over at se vejr observationer og prognoser.

At skifte det kort: Klik på de grønne knapper med et sort kors for at zoome ind; på den grønne knap med en bindestreg for at zoome ud; eller på de grønne pile for tilstødende kort.


METAR-TAF: